Time;durP1;ratioP1;P1;durP2;ratioP2;P2;SDS_P1;SDS_P2;PMS_P1;PMS_P2;Temp;Humidity;BMP_temperature;BMP_pressure;BME280_temperature;BME280_humidity;BME280_pressure;Samples;Min_cycle;Max_cycle;Signal;HPM_P1;HPM_P2
2022/03/30 00:00:15;;;;;;;33.77;24.60;;;10.20;99.90;;;;;;5070698;28;20174;-65
2022/03/30 00:02:40;;;;;;;34.63;22.90;;;10.10;99.90;;;;;;5066150;28;20262;-66
2022/03/30 00:05:06;;;;;;;36.73;26.10;;;10.10;99.90;;;;;;5070380;28;20206;-66
2022/03/30 00:07:32;;;;;;;34.53;25.47;;;10.10;99.90;;;;;;5071081;28;20190;-66
2022/03/30 00:10:03;;;;;;;37.70;24.73;;;10.10;99.90;;;;;;5070798;28;20185;-67
2022/03/30 00:12:29;;;;;;;35.53;24.63;;;10.00;99.90;;;;;;5070875;28;20178;-67
2022/03/30 00:14:54;;;;;;;31.53;24.27;;;10.00;99.90;;;;;;5070351;28;20579;-64
2022/03/30 00:17:20;;;;;;;36.10;24.90;;;10.10;99.90;;;;;;5070381;28;20202;-66
2022/03/30 00:19:46;;;;;;;35.90;23.60;;;10.10;99.90;;;;;;5070716;28;20205;-66
2022/03/30 00:22:11;;;;;;;39.07;25.60;;;10.10;99.90;;;;;;5070634;28;20208;-66
2022/03/30 00:24:38;;;;;;;34.60;24.33;;;10.10;99.90;;;;;;5070370;28;20664;-66
2022/03/30 00:27:06;;;;;;;42.50;25.10;;;10.20;99.90;;;;;;5070381;28;20186;-66
2022/03/30 00:29:32;;;;;;;29.50;23.60;;;10.20;99.90;;;;;;5070602;28;20181;-67
2022/03/30 00:31:57;;;;;;;39.10;23.97;;;10.20;99.90;;;;;;5070708;28;20182;-66
2022/03/30 00:34:23;;;;;;;37.53;25.73;;;10.20;99.90;;;;;;5070946;28;20703;-66
2022/03/30 00:36:49;;;;;;;35.60;23.97;;;10.10;99.90;;;;;;5068846;28;20255;-66
2022/03/30 00:39:16;;;;;;;37.80;24.83;;;10.00;99.90;;;;;;5070684;28;20281;-65
2022/03/30 00:41:42;;;;;;;31.60;23.10;;;10.10;99.90;;;;;;5070243;28;20198;-66
2022/03/30 00:44:09;;;;;;;39.17;24.67;;;10.10;99.90;;;;;;5070733;28;20173;-67
2022/03/30 00:46:35;;;;;;;36.27;23.97;;;10.00;99.90;;;;;;5073214;28;20609;-65
2022/03/30 00:49:04;;;;;;;36.70;26.23;;;9.90;99.90;;;;;;5074018;28;20174;-67
2022/03/30 00:51:30;;;;;;;33.37;23.37;;;9.80;99.90;;;;;;5074004;28;20593;-67
2022/03/30 00:53:56;;;;;;;35.47;24.67;;;9.80;99.90;;;;;;5073738;28;20551;-66
2022/03/30 00:56:22;;;;;;;32.03;23.67;;;9.70;99.90;;;;;;5073766;28;20186;-66
2022/03/30 00:58:49;;;;;;;34.13;24.63;;;9.70;99.90;;;;;;5072959;28;20691;-66
2022/03/30 01:01:14;;;;;;;32.97;24.63;;;9.80;99.90;;;;;;5073394;28;20197;-67
2022/03/30 01:03:40;;;;;;;33.77;23.17;;;9.80;99.90;;;;;;5074111;28;20593;-66
2022/03/30 01:06:05;;;;;;;34.07;25.17;;;9.80;99.90;;;;;;5073317;28;20186;-66
2022/03/30 01:08:31;;;;;;;37.37;25.50;;;9.80;99.90;;;;;;5072438;28;20170;-67
2022/03/30 01:10:58;;;;;;;36.00;25.57;;;9.70;99.90;;;;;;5073379;28;20205;-64
2022/03/30 01:13:24;;;;;;;34.33;24.20;;;9.70;99.90;;;;;;5073848;28;20173;-67
2022/03/30 01:15:49;;;;;;;38.37;24.43;;;9.70;99.90;;;;;;5071768;28;20170;-67
2022/03/30 01:18:15;;;;;;;37.83;25.07;;;9.80;99.90;;;;;;5073699;28;20184;-67
2022/03/30 01:20:45;;;;;;;35.70;23.23;;;9.80;99.90;;;;;;5072236;28;20186;-66
2022/03/30 01:23:12;;;;;;;38.67;25.03;;;9.70;99.90;;;;;;5073499;28;20201;-67
2022/03/30 01:25:38;;;;;;;32.07;24.20;;;9.80;99.90;;;;;;5073187;28;20182;-65
2022/03/30 01:28:04;;;;;;;39.73;24.30;;;9.80;99.90;;;;;;5073228;28;20681;-67
2022/03/30 01:33:13;;;;;;;36.83;25.13;;;9.80;99.90;;;;;;5073033;28;20240;-66
2022/03/30 01:35:40;;;;;;;37.97;27.40;;;9.70;99.90;;;;;;5073300;28;20174;-67
2022/03/30 01:38:06;;;;;;;32.63;24.07;;;9.70;99.90;;;;;;5070646;28;20748;-66
2022/03/30 01:40:31;;;;;;;37.03;24.77;;;9.70;99.90;;;;;;5072318;28;20182;-67
2022/03/30 01:42:57;;;;;;;34.30;23.47;;;9.70;99.90;;;;;;5072862;28;20193;-66
2022/03/30 01:45:23;;;;;;;31.97;23.43;;;9.70;99.90;;;;;;5072342;28;20552;-66
2022/03/30 01:47:58;;;;;;;30.37;22.13;;;9.60;99.90;;;;;;5072819;28;20184;-65
2022/03/30 01:50:25;;;;;;;33.50;23.53;;;9.50;99.90;;;;;;5072740;28;20177;-67
2022/03/30 01:52:52;;;;;;;33.40;23.33;;;9.50;99.90;;;;;;5072687;28;20205;-65
2022/03/30 01:55:18;;;;;;;31.70;22.93;;;9.50;99.90;;;;;;5072458;28;20174;-67
2022/03/30 01:57:45;;;;;;;33.40;23.43;;;9.40;99.90;;;;;;5072343;28;20198;-66
2022/03/30 02:00:12;;;;;;;34.27;24.50;;;9.50;99.90;;;;;;5072669;28;20234;-66
2022/03/30 02:02:39;;;;;;;30.70;23.50;;;9.40;99.90;;;;;;5072216;28;20683;-67
2022/03/30 02:05:06;;;;;;;35.40;22.60;;;9.40;99.90;;;;;;5072295;28;20162;-67
2022/03/30 02:07:32;;;;;;;32.80;23.03;;;9.40;99.90;;;;;;5072458;28;20543;-66
2022/03/30 02:09:58;;;;;;;36.67;24.53;;;9.30;99.90;;;;;;5072744;28;20195;-67
2022/03/30 02:12:23;;;;;;;34.93;22.27;;;9.20;99.90;;;;;;5072292;28;20193;-66
2022/03/30 02:14:51;;;;;;;36.17;23.23;;;9.20;99.90;;;;;;5072013;28;20229;-67
2022/03/30 02:17:18;;;;;;;38.27;24.87;;;9.20;99.90;;;;;;5072201;28;20244;-67
2022/03/30 02:19:45;;;;;;;32.83;24.17;;;9.20;99.90;;;;;;5072385;28;20170;-67
2022/03/30 02:22:10;;;;;;;34.20;24.00;;;9.20;99.90;;;;;;5072218;28;20285;-66
2022/03/30 02:24:36;;;;;;;31.00;22.93;;;9.20;99.90;;;;;;5071995;28;20265;-66
2022/03/30 02:27:02;;;;;;;35.00;23.63;;;9.20;99.90;;;;;;5071920;28;20678;-66
2022/03/30 02:29:28;;;;;;;35.33;23.83;;;9.30;99.90;;;;;;5071855;28;20190;-66
2022/03/30 02:31:55;;;;;;;36.10;23.80;;;9.20;99.90;;;;;;5070481;28;20215;-67
2022/03/30 02:34:21;;;;;;;34.27;23.87;;;9.10;99.90;;;;;;5072075;28;20170;-66
2022/03/30 02:36:48;;;;;;;40.87;24.37;;;9.10;99.90;;;;;;5071579;28;20314;-66
2022/03/30 02:39:15;;;;;;;35.77;24.70;;;9.10;99.90;;;;;;5071723;28;20607;-67
2022/03/30 02:41:41;;;;;;;36.70;24.50;;;8.90;99.90;;;;;;5071796;28;20220;-66
2022/03/30 02:44:08;;;;;;;38.67;25.17;;;8.90;99.90;;;;;;5071808;28;20632;-66
2022/03/30 02:46:34;;;;;;;36.43;24.83;;;8.80;99.90;;;;;;5051874;28;20277;-66
2022/03/30 02:48:59;;;;;;;44.50;26.57;;;8.80;99.90;;;;;;5051950;28;20194;-67
2022/03/30 02:51:27;;;;;;;39.90;25.90;;;8.70;99.90;;;;;;5070707;28;20541;-66
2022/03/30 02:53:54;;;;;;;44.53;27.53;;;8.70;99.90;;;;;;5072053;28;20177;-66
2022/03/30 02:56:19;;;;;;;43.63;27.60;;;8.60;99.90;;;;;;5071009;28;20193;-66
2022/03/30 02:58:45;;;;;;;38.37;25.93;;;8.50;99.90;;;;;;5071205;28;20261;-67
2022/03/30 03:01:10;;;;;;;38.93;27.27;;;8.50;99.90;;;;;;5071165;28;20193;-66
2022/03/30 03:03:36;;;;;;;43.60;26.37;;;8.50;99.90;;;;;;5071330;28;20183;-67
2022/03/30 03:06:02;;;;;;;43.10;28.33;;;8.40;99.90;;;;;;5069563;28;20231;-66
2022/03/30 03:08:27;;;;;;;44.97;28.77;;;8.40;99.90;;;;;;5069372;28;20174;-67
2022/03/30 03:10:53;;;;;;;36.93;26.53;;;8.30;99.90;;;;;;5071335;28;20666;-66
2022/03/30 03:13:19;;;;;;;37.53;26.00;;;8.30;99.90;;;;;;5071419;28;20169;-65
2022/03/30 03:15:46;;;;;;;39.93;25.13;;;8.30;99.90;;;;;;5071054;28;20656;-66
2022/03/30 03:18:13;;;;;;;37.10;25.87;;;8.20;99.90;;;;;;5071325;28;20625;-67
2022/03/30 03:20:42;;;;;;;40.00;26.40;;;8.20;99.90;;;;;;5071325;28;20577;-67
2022/03/30 03:23:08;;;;;;;40.03;26.30;;;8.10;99.90;;;;;;5070264;28;20240;-67
2022/03/30 03:25:35;;;;;;;41.07;29.23;;;8.10;99.90;;;;;;5070257;28;20202;-67
2022/03/30 03:28:01;;;;;;;49.43;30.73;;;8.00;99.90;;;;;;5071260;28;20277;-66
2022/03/30 03:30:28;;;;;;;45.23;28.03;;;8.00;99.90;;;;;;5051393;28;20191;-65
2022/03/30 03:32:53;;;;;;;44.47;27.83;;;7.90;99.90;;;;;;5053504;28;20174;-66
2022/03/30 03:35:20;;;;;;;41.30;26.97;;;7.80;99.90;;;;;;5070913;28;20772;-67
2022/03/30 03:37:45;;;;;;;34.57;26.20;;;7.80;99.90;;;;;;5069924;28;20687;-65
2022/03/30 03:40:11;;;;;;;39.60;25.87;;;7.70;99.90;;;;;;5069882;28;20269;-66
2022/03/30 03:42:38;;;;;;;45.70;27.03;;;7.70;99.90;;;;;;5071168;28;20244;-65
2022/03/30 03:45:05;;;;;;;43.03;26.63;;;7.70;99.90;;;;;;5070580;28;20659;-65
2022/03/30 03:47:31;;;;;;;43.53;27.03;;;7.70;99.90;;;;;;5071119;28;20553;-65
2022/03/30 03:49:56;;;;;;;38.07;25.63;;;7.70;99.90;;;;;;5069950;28;20202;-66
2022/03/30 03:52:22;;;;;;;40.10;27.17;;;7.80;99.90;;;;;;5071192;28;20206;-66
2022/03/30 03:54:48;;;;;;;41.73;26.63;;;7.80;99.90;;;;;;5070863;28;20682;-66
2022/03/30 03:57:13;;;;;;;40.83;24.87;;;7.80;99.90;;;;;;5070794;28;20231;-65
2022/03/30 03:59:39;;;;;;;39.10;23.83;;;7.90;99.90;;;;;;5071186;28;20186;-65
2022/03/30 04:02:07;;;;;;;36.50;24.23;;;7.90;99.90;;;;;;5070239;28;20202;-66
2022/03/30 04:04:33;;;;;;;38.77;24.77;;;7.90;99.90;;;;;;5070950;28;20166;-66
2022/03/30 04:06:58;;;;;;;37.83;25.90;;;7.90;99.90;;;;;;5070718;28;20186;-66
2022/03/30 04:09:24;;;;;;;41.13;26.60;;;7.90;99.90;;;;;;5070918;28;20170;-66
2022/03/30 04:11:50;;;;;;;37.13;26.40;;;7.90;99.90;;;;;;5069904;28;20191;-66
2022/03/30 04:14:19;;;;;;;38.97;27.80;;;7.90;99.90;;;;;;5068740;28;20192;-66
2022/03/30 04:16:45;;;;;;;37.27;26.90;;;8.00;99.90;;;;;;5070528;28;20598;-66
2022/03/30 04:19:11;;;;;;;36.90;25.93;;;8.00;99.90;;;;;;5070746;28;20177;-66
2022/03/30 04:21:37;;;;;;;37.30;25.80;;;8.00;99.90;;;;;;5073989;28;20205;-66
2022/03/30 04:24:03;;;;;;;38.77;26.17;;;8.00;99.90;;;;;;5073825;28;20590;-66
2022/03/30 04:26:29;;;;;;;35.50;25.83;;;8.00;99.90;;;;;;5074253;28;20286;-66
2022/03/30 04:28:54;;;;;;;41.30;25.97;;;8.10;99.90;;;;;;5073548;28;20252;-66
2022/03/30 04:31:20;;;;;;;42.20;26.37;;;8.00;99.90;;;;;;5073042;28;20273;-65
2022/03/30 04:33:46;;;;;;;34.73;25.17;;;8.00;99.90;;;;;;5074312;28;20170;-66
2022/03/30 04:36:12;;;;;;;33.67;23.70;;;8.00;99.90;;;;;;5072831;28;20201;-66
2022/03/30 04:38:38;;;;;;;37.10;24.60;;;8.00;99.90;;;;;;5074263;28;20194;-65
2022/03/30 04:41:03;;;;;;;41.67;23.80;;;7.90;99.90;;;;;;5074171;28;20194;-66
2022/03/30 04:43:29;;;;;;;37.97;23.87;;;7.90;99.90;;;;;;5074151;28;20529;-65
2022/03/30 04:45:55;;;;;;;37.10;25.47;;;8.00;99.90;;;;;;5072703;28;20273;-65
2022/03/30 04:48:22;;;;;;;35.57;25.47;;;8.00;99.90;;;;;;5073643;28;20213;-66
2022/03/30 04:50:49;;;;;;;40.40;26.33;;;8.10;99.90;;;;;;5073059;28;20698;-66
2022/03/30 04:53:14;;;;;;;41.87;27.83;;;8.10;99.90;;;;;;5074171;28;20181;-66
2022/03/30 04:55:40;;;;;;;43.40;25.80;;;8.00;99.90;;;;;;5073640;28;20182;-66
2022/03/30 04:58:06;;;;;;;38.90;23.70;;;7.90;99.90;;;;;;5072274;28;20702;-66
2022/03/30 05:00:32;;;;;;;35.87;24.43;;;7.90;99.90;;;;;;5072876;28;20186;-66
2022/03/30 05:02:58;;;;;;;35.93;26.03;;;7.90;99.90;;;;;;5072981;28;20214;-66
2022/03/30 05:05:24;;;;;;;39.80;26.30;;;7.80;99.90;;;;;;5073491;28;20170;-66
2022/03/30 05:07:50;;;;;;;35.07;25.37;;;7.80;99.90;;;;;;5072632;28;20290;-66
2022/03/30 05:10:16;;;;;;;45.03;27.17;;;7.80;99.90;;;;;;5074046;28;20189;-65
2022/03/30 05:12:42;;;;;;;40.43;25.13;;;7.80;99.90;;;;;;5075883;28;20216;-66
2022/03/30 05:15:09;;;;;;;37.43;25.63;;;7.80;99.90;;;;;;5072151;28;20662;-66
2022/03/30 05:17:37;;;;;;;34.47;23.40;;;7.70;99.90;;;;;;5073170;28;20186;-66
2022/03/30 05:20:04;;;;;;;45.03;25.40;;;7.60;99.90;;;;;;5073197;28;20282;-65
2022/03/30 05:22:29;;;;;;;37.77;23.97;;;7.60;99.90;;;;;;5073783;28;20201;-66
2022/03/30 05:24:56;;;;;;;42.97;24.63;;;7.60;99.90;;;;;;5071279;28;20178;-66
2022/03/30 05:27:21;;;;;;;38.43;26.43;;;7.50;99.90;;;;;;5071826;28;20190;-66
2022/03/30 05:29:47;;;;;;;42.50;24.83;;;7.40;99.90;;;;;;5072049;28;20261;-66
2022/03/30 05:32:13;;;;;;;36.37;25.33;;;7.40;99.90;;;;;;5072749;28;20232;-66
2022/03/30 05:34:38;;;;;;;35.87;25.40;;;7.40;99.90;;;;;;5073275;28;20174;-66
2022/03/30 05:37:04;;;;;;;40.60;24.13;;;7.40;99.90;;;;;;5073180;28;20667;-66
2022/03/30 05:39:31;;;;;;;41.57;26.10;;;7.30;99.90;;;;;;5073259;28;20307;-66
2022/03/30 05:41:57;;;;;;;39.17;25.50;;;7.30;99.90;;;;;;5073031;28;20288;-66
2022/03/30 05:44:22;;;;;;;41.13;24.27;;;7.30;99.90;;;;;;5071910;28;20323;-66
2022/03/30 05:46:48;;;;;;;39.77;26.50;;;7.30;99.90;;;;;;5071468;28;20225;-66
2022/03/30 05:49:13;;;;;;;39.33;25.00;;;7.30;99.90;;;;;;5072709;28;20166;-66
2022/03/30 05:51:39;;;;;;;39.97;25.77;;;7.30;99.90;;;;;;5071578;28;20296;-66
2022/03/30 05:54:05;;;;;;;38.53;24.53;;;7.30;99.90;;;;;;5070942;28;20183;-66
2022/03/30 05:59:15;;;;;;;47.13;25.10;;;7.40;99.90;;;;;;5068384;28;20200;-66
2022/03/30 06:01:42;;;;;;;39.83;25.10;;;7.50;99.90;;;;;;5070954;28;20194;-66
2022/03/30 06:04:07;;;;;;;39.57;23.77;;;7.50;99.90;;;;;;5085425;28;20188;-66
2022/03/30 06:06:33;;;;;;;39.13;24.37;;;7.50;99.90;;;;;;5080016;28;20194;-65
2022/03/30 06:09:00;;;;;;;39.43;23.87;;;7.40;99.90;;;;;;5072396;28;20170;-66
2022/03/30 06:11:25;;;;;;;40.67;24.90;;;7.40;99.90;;;;;;5072066;28;20170;-66
2022/03/30 06:13:51;;;;;;;39.03;24.87;;;7.50;99.90;;;;;;5072633;28;20705;-66
2022/03/30 06:16:17;;;;;;;40.20;24.60;;;7.50;99.90;;;;;;5071789;28;20202;-66
2022/03/30 06:18:43;;;;;;;38.27;24.63;;;7.40;99.90;;;;;;5072410;28;20681;-66
2022/03/30 06:21:10;;;;;;;37.33;24.80;;;7.40;99.90;;;;;;5071737;28;20232;-66
2022/03/30 06:23:35;;;;;;;40.60;24.50;;;7.50;99.90;;;;;;5072177;28;20219;-65
2022/03/30 06:26:02;;;;;;;40.70;24.97;;;7.50;99.90;;;;;;5071518;28;20174;-65
2022/03/30 06:28:29;;;;;;;40.17;23.97;;;7.50;99.90;;;;;;5071977;28;20176;-66
2022/03/30 06:30:55;;;;;;;40.37;24.73;;;7.50;99.90;;;;;;5071907;28;20174;-65
2022/03/30 06:33:21;;;;;;;41.47;25.33;;;7.60;99.90;;;;;;5071664;28;20639;-66
2022/03/30 06:35:47;;;;;;;38.63;23.70;;;7.80;99.90;;;;;;5071738;28;20185;-66
2022/03/30 06:38:13;;;;;;;39.47;25.73;;;8.10;99.90;;;;;;5071941;28;20198;-66
2022/03/30 06:40:39;;;;;;;39.63;26.10;;;8.30;99.90;;;;;;5070464;28;20559;-66
2022/03/30 06:43:04;;;;;;;37.27;23.70;;;8.70;99.90;;;;;;5070965;28;20210;-66
2022/03/30 06:45:30;;;;;;;39.83;24.10;;;8.80;99.90;;;;;;5071434;28;20181;-67
2022/03/30 06:47:56;;;;;;;33.77;23.70;;;8.90;99.90;;;;;;5071394;28;20702;-66
2022/03/30 06:50:22;;;;;;;43.70;24.97;;;8.90;99.90;;;;;;5071606;28;20655;-66
2022/03/30 06:52:48;;;;;;;38.63;24.43;;;8.80;99.90;;;;;;5071581;28;20272;-65
2022/03/30 06:55:14;;;;;;;34.80;23.50;;;8.80;99.90;;;;;;5070901;28;20182;-65
2022/03/30 06:57:43;;;;;;;35.93;24.53;;;8.80;99.90;;;;;;5071466;28;20659;-66
2022/03/30 07:00:13;;;;;;;45.43;25.00;;;8.70;99.90;;;;;;5071507;28;20228;-66
2022/03/30 07:02:39;;;;;;;42.13;26.13;;;8.60;99.90;;;;;;5069899;28;20290;-66
2022/03/30 07:05:05;;;;;;;41.73;25.27;;;8.70;99.90;;;;;;5070963;28;20182;-65
2022/03/30 07:10:18;;;;;;;38.27;23.77;;;8.80;99.90;;;;;;5071432;28;20197;-66
2022/03/30 07:12:48;;;;;;;38.60;23.83;;;8.90;99.90;;;;;;5071273;28;20521;-65
2022/03/30 07:15:15;;;;;;;39.33;23.10;;;9.20;99.90;;;;;;5070879;28;20517;-65
2022/03/30 07:17:51;;;;;;;35.03;23.40;;;9.40;99.90;;;;;;5071402;28;20237;-66
2022/03/30 07:20:19;;;;;;;31.13;22.10;;;9.50;99.90;;;;;;5070896;28;20197;-66
2022/03/30 07:22:47;;;;;;;36.53;24.37;;;9.70;99.90;;;;;;5073362;28;20212;-65
2022/03/30 07:25:14;;;;;;;37.23;23.97;;;9.70;99.90;;;;;;5071963;28;20178;-66
2022/03/30 07:27:46;;;;;;;37.07;23.93;;;9.80;99.90;;;;;;5069748;28;20201;-66
2022/03/30 07:30:13;;;;;;;35.07;23.70;;;10.00;99.90;;;;;;5068910;28;20174;-65
2022/03/30 07:32:40;;;;;;;36.80;24.27;;;10.10;99.90;;;;;;5070832;28;20209;-66
2022/03/30 07:35:08;;;;;;;37.27;24.00;;;10.20;99.90;;;;;;5070500;28;20181;-65
2022/03/30 07:37:34;;;;;;;33.83;21.83;;;10.30;99.90;;;;;;5070372;28;20201;-66
2022/03/30 07:40:00;;;;;;;36.30;23.13;;;10.20;99.90;;;;;;5071093;28;20217;-66
2022/03/30 07:42:26;;;;;;;34.97;21.63;;;10.20;99.90;;;;;;5070645;28;20209;-64
2022/03/30 07:44:52;;;;;;;35.17;23.17;;;10.10;99.90;;;;;;5069528;28;20174;-65
2022/03/30 07:47:18;;;;;;;33.90;21.63;;;10.30;99.90;;;;;;5070664;28;20687;-65
2022/03/30 07:49:44;;;;;;;39.17;21.63;;;10.40;99.90;;;;;;5070989;28;20173;-67
2022/03/30 07:52:10;;;;;;;32.60;22.10;;;10.50;99.90;;;;;;5070936;28;20554;-65
2022/03/30 07:54:35;;;;;;;30.70;20.87;;;10.60;99.90;;;;;;5071824;28;20193;-66
2022/03/30 07:57:01;;;;;;;36.20;22.03;;;11.00;99.90;;;;;;5072493;28;20202;-66
2022/03/30 07:59:26;;;;;;;31.97;21.87;;;11.20;99.90;;;;;;5075061;28;20185;-65
2022/03/30 08:01:54;;;;;;;32.97;20.30;;;11.60;99.90;;;;;;5073479;28;20256;-66
2022/03/30 08:04:22;;;;;;;32.83;20.47;;;11.90;99.90;;;;;;5074820;28;20368;-65
2022/03/30 08:06:48;;;;;;;34.17;21.03;;;12.10;99.90;;;;;;5074573;28;20267;-66
2022/03/30 08:09:14;;;;;;;37.63;20.40;;;12.30;99.90;;;;;;5074724;28;20582;-66
2022/03/30 08:11:39;;;;;;;27.43;19.33;;;12.60;99.90;;;;;;5073930;28;20573;-65
2022/03/30 08:14:05;;;;;;;27.33;20.10;;;12.50;99.90;;;;;;5074617;28;20186;-65
2022/03/30 08:16:33;;;;;;;30.63;19.83;;;12.40;99.90;;;;;;5074396;28;20223;-66
2022/03/30 08:18:59;;;;;;;31.77;21.60;;;12.20;99.90;;;;;;5074707;28;20198;-66
2022/03/30 08:24:08;;;;;;;26.30;19.87;;;12.40;99.90;;;;;;5074549;28;20181;-66
2022/03/30 08:26:34;;;;;;;29.30;20.77;;;12.70;99.90;;;;;;5073605;28;20273;-66
2022/03/30 08:29:00;;;;;;;29.17;18.73;;;13.20;99.90;;;;;;5093818;28;20173;-65
2022/03/30 08:31:25;;;;;;;27.07;19.63;;;13.50;99.90;;;;;;5093422;28;20643;-65
2022/03/30 08:33:51;;;;;;;27.33;19.73;;;13.40;99.90;;;;;;5094989;28;20566;-66
2022/03/30 08:36:17;;;;;;;27.07;19.07;;;13.40;99.90;;;;;;5094077;28;20189;-66
2022/03/30 08:38:43;;;;;;;27.63;18.43;;;13.50;99.90;;;;;;5094530;28;20178;-66
2022/03/30 08:41:09;;;;;;;30.40;17.77;;;13.60;99.90;;;;;;5081594;28;20221;-67
2022/03/30 08:43:35;;;;;;;26.33;19.23;;;13.90;99.90;;;;;;5073945;28;20251;-67
2022/03/30 08:46:02;;;;;;;26.27;17.60;;;14.00;99.90;;;;;;5062251;28;20616;-66
2022/03/30 08:48:29;;;;;;;27.00;18.83;;;14.00;99.90;;;;;;5073957;28;20303;-65
2022/03/30 08:50:57;;;;;;;25.20;18.30;;;14.40;99.90;;;;;;5073984;28;20189;-66
2022/03/30 08:53:26;;;;;;;23.53;17.33;;;15.00;99.90;;;;;;5072448;28;20717;-67
2022/03/30 08:55:52;;;;;;;23.90;17.43;;;15.60;99.90;;;;;;5070984;28;20654;-66
2022/03/30 08:58:17;;;;;;;22.23;16.90;;;15.60;99.90;;;;;;5074001;28;20178;-66
2022/03/30 09:00:43;;;;;;;25.57;16.27;;;15.50;99.90;;;;;;5072237;28;20186;-67
2022/03/30 09:03:09;;;;;;;25.13;17.40;;;15.50;99.90;;;;;;5073811;28;20197;-66
2022/03/30 09:05:39;;;;;;;24.10;15.80;;;15.80;99.90;;;;;;5072622;28;20178;-66
2022/03/30 09:08:19;;;;;;;23.17;18.07;;;16.00;99.90;;;;;;5073648;28;20615;-66
2022/03/30 09:10:47;;;;;;;27.33;17.83;;;15.70;99.90;;;;;;5072796;28;20207;-66
2022/03/30 09:13:14;;;;;;;24.83;16.70;;;15.90;99.90;;;;;;5072140;28;20644;-66
2022/03/30 09:15:41;;;;;;;22.33;16.73;;;16.20;99.90;;;;;;5073334;28;20656;-66
2022/03/30 09:18:09;;;;;;;24.33;17.10;;;15.80;99.90;;;;;;5072077;28;20229;-66
2022/03/30 09:20:39;;;;;;;21.17;15.97;;;15.60;99.90;;;;;;5073430;28;20218;-66
2022/03/30 09:23:08;;;;;;;21.90;16.37;;;15.50;99.90;;;;;;5073296;28;20206;-65
2022/03/30 09:25:34;;;;;;;22.73;16.80;;;15.40;99.90;;;;;;5073093;28;20231;-65
2022/03/30 09:28:01;;;;;;;23.93;16.97;;;15.70;99.90;;;;;;5072166;28;20601;-66
2022/03/30 09:30:28;;;;;;;21.80;15.87;;;15.80;99.90;;;;;;5071656;28;20193;-66
2022/03/30 09:32:56;;;;;;;25.17;17.03;;;15.90;99.90;;;;;;5092269;28;20195;-67
2022/03/30 09:35:28;;;;;;;21.47;15.83;;;16.10;99.90;;;;;;5093514;28;20184;-65
2022/03/30 09:38:03;;;;;;;26.63;16.90;;;16.20;99.90;;;;;;5093444;28;20268;-65
2022/03/30 09:40:34;;;;;;;24.93;16.57;;;16.30;99.90;;;;;;5093422;28;20607;-64
2022/03/30 09:43:29;;;;;;;23.37;15.83;;;16.20;99.90;;;;;;5093330;28;20201;-65
2022/03/30 09:46:11;;;;;;;21.07;16.63;;;15.90;99.90;;;;;;5072962;28;20182;-65
2022/03/30 09:48:42;;;;;;;21.17;16.00;;;16.10;99.90;;;;;;5073033;28;20171;-65
2022/03/30 09:51:08;;;;;;;23.03;15.83;;;16.10;99.90;;;;;;5072723;28;20323;-64
2022/03/30 09:53:35;;;;;;;20.93;14.37;;;16.30;99.90;;;;;;5072577;28;20262;-65
2022/03/30 09:56:04;;;;;;;23.37;14.57;;;16.40;99.90;;;;;;5072441;28;20174;-65
2022/03/30 09:58:32;;;;;;;20.17;14.00;;;16.10;99.90;;;;;;5072758;28;20538;-65
2022/03/30 10:01:29;;;;;;;16.37;14.37;;;16.20;99.90;;;;;;5072659;28;20170;-66
2022/03/30 10:03:59;;;;;;;20.53;15.10;;;16.40;99.90;;;;;;5071435;28;20190;-64
2022/03/30 10:06:34;;;;;;;18.10;14.03;;;16.40;99.90;;;;;;5072185;28;20201;-65
2022/03/30 10:08:59;;;;;;;18.23;14.30;;;16.80;99.90;;;;;;5074307;28;20200;-65
2022/03/30 10:11:27;;;;;;;21.47;14.10;;;17.00;98.90;;;;;;5085878;28;20201;-64
2022/03/30 10:13:59;;;;;;;24.40;14.63;;;16.80;98.50;;;;;;5072580;28;20177;-65
2022/03/30 10:16:27;;;;;;;21.60;15.27;;;16.80;99.80;;;;;;5073264;28;20186;-65
2022/03/30 10:18:53;;;;;;;18.70;13.93;;;16.60;98.10;;;;;;5074114;28;20167;-65
2022/03/30 10:21:33;;;;;;;21.07;13.53;;;16.30;99.20;;;;;;5072790;28;20285;-66
2022/03/30 10:24:22;;;;;;;15.43;13.27;;;16.30;98.80;;;;;;5072398;28;20628;-66
2022/03/30 10:27:16;;;;;;;17.93;15.17;;;16.20;97.60;;;;;;5070862;28;20209;-65
2022/03/30 10:29:54;;;;;;;19.17;13.13;;;16.00;98.90;;;;;;5070808;28;20170;-65
2022/03/30 10:32:24;;;;;;;18.10;13.30;;;15.90;99.50;;;;;;5071812;28;20188;-66
2022/03/30 10:34:50;;;;;;;20.43;15.10;;;16.00;99.60;;;;;;5072060;28;20181;-65
2022/03/30 10:37:27;;;;;;;17.47;13.63;;;16.20;99.50;;;;;;5075333;28;20294;-64
2022/03/30 10:39:54;;;;;;;19.70;14.53;;;16.40;99.70;;;;;;5072169;28;20651;-66
2022/03/30 10:42:20;;;;;;;20.93;15.33;;;16.80;98.30;;;;;;5070209;28;20225;-65
2022/03/30 10:44:57;;;;;;;19.77;14.37;;;17.00;99.20;;;;;;5071517;28;20178;-64
2022/03/30 10:47:27;;;;;;;22.67;15.00;;;17.40;99.70;;;;;;5071467;28;20200;-65
2022/03/30 10:49:55;;;;;;;16.27;13.27;;;17.50;98.10;;;;;;5071872;28;20178;-66
2022/03/30 10:52:25;;;;;;;21.13;14.77;;;17.50;98.10;;;;;;5071371;28;20213;-65
2022/03/30 10:54:55;;;;;;;18.27;14.53;;;17.10;98.10;;;;;;5070358;28;20632;-64
2022/03/30 10:58:01;;;;;;;20.63;15.10;;;17.10;97.80;;;;;;5071178;28;20727;-64
2022/03/30 11:00:38;;;;;;;22.47;15.27;;;17.30;99.90;;;;;;5071305;28;20174;-66
2022/03/30 11:03:21;;;;;;;20.17;14.77;;;17.60;99.40;;;;;;5071652;28;20717;-65
2022/03/30 11:06:09;;;;;;;17.67;13.35;;;18.30;99.90;;;;;;5070907;28;20224;-65
2022/03/30 11:08:35;;;;;;;20.00;13.47;;;18.90;96.30;;;;;;5074163;28;20181;-66
2022/03/30 11:11:02;;;;;;;22.43;14.33;;;18.80;95.00;;;;;;5077918;28;20178;-65
2022/03/30 11:13:28;;;;;;;24.10;14.13;;;18.20;95.60;;;;;;5071208;28;20196;-65
2022/03/30 11:15:57;;;;;;;18.07;13.67;;;18.50;96.60;;;;;;5069348;28;20602;-65
2022/03/30 11:18:23;;;;;;;18.60;13.57;;;19.00;97.10;;;;;;5071237;28;20177;-67
2022/03/30 11:21:11;;;;;;;17.60;12.60;;;19.40;94.00;;;;;;5071147;28;20247;-66
2022/03/30 11:23:38;;;;;;;18.07;14.00;;;19.10;93.90;;;;;;5071334;28;20362;-66
2022/03/30 11:26:03;;;;;;;20.73;14.33;;;18.20;93.80;;;;;;5070599;28;20184;-66
2022/03/30 11:28:38;;;;;;;18.57;14.30;;;18.10;95.30;;;;;;5070877;28;20531;-66
2022/03/30 11:31:05;;;;;;;19.53;15.37;;;17.80;95.80;;;;;;5069737;28;20173;-66
2022/03/30 11:33:35;;;;;;;18.70;14.20;;;17.90;95.30;;;;;;5071135;28;20209;-65
2022/03/30 11:36:02;;;;;;;16.77;12.77;;;17.60;94.50;;;;;;5070591;28;20277;-64
2022/03/30 11:38:39;;;;;;;18.10;14.33;;;17.30;95.00;;;;;;5071247;28;20174;-66
2022/03/30 11:41:08;;;;;;;16.43;13.60;;;16.90;93.90;;;;;;5071030;28;20178;-66
2022/03/30 11:46:40;;;;;;;21.57;14.53;;;16.80;97.10;;;;;;5048167;28;20277;-69
2022/03/30 11:49:06;;;;;;;18.70;12.53;;;17.10;95.90;;;;;;5061208;28;20189;-66
2022/03/30 11:51:32;;;;;;;19.53;13.53;;;17.20;94.80;;;;;;5071076;28;20581;-67
2022/03/30 11:54:17;;;;;;;24.53;14.03;;;17.60;96.10;;;;;;5071019;28;20173;-66
2022/03/30 11:56:44;;;;;;;17.93;13.37;;;17.90;94.20;;;;;;5070798;28;20186;-66
2022/03/30 11:59:10;;;;;;;17.47;13.57;;;17.70;94.80;;;;;;5070763;28;20253;-66
2022/03/30 12:01:36;;;;;;;20.03;13.70;;;17.70;94.40;;;;;;5071066;28;20703;-66
2022/03/30 12:04:03;;;;;;;19.37;15.43;;;17.50;95.30;;;;;;5070836;28;20536;-66
2022/03/30 12:06:29;;;;;;;18.23;13.93;;;17.50;93.80;;;;;;5070704;28;20693;-67
2022/03/30 12:08:54;;;;;;;17.03;14.23;;;17.50;94.90;;;;;;5070799;28;20249;-66
2022/03/30 12:11:21;;;;;;;17.67;12.77;;;17.60;94.40;;;;;;5069427;28;20269;-67
2022/03/30 12:13:51;;;;;;;20.20;14.07;;;17.70;95.20;;;;;;5070566;28;20170;-66
2022/03/30 12:16:17;;;;;;;19.93;12.57;;;17.90;94.10;;;;;;5070264;28;20658;-66
2022/03/30 12:18:47;;;;;;;16.10;13.23;;;18.00;95.20;;;;;;5070679;28;20402;-66
2022/03/30 12:21:24;;;;;;;19.33;13.00;;;17.80;93.50;;;;;;5069369;28;20543;-66
2022/03/30 12:23:58;;;;;;;15.27;11.70;;;17.80;94.00;;;;;;5070746;28;20181;-65
2022/03/30 12:26:25;;;;;;;19.70;12.83;;;18.00;92.60;;;;;;5070592;28;20220;-65
2022/03/30 12:29:01;;;;;;;16.67;12.07;;;17.90;92.10;;;;;;5070628;28;20175;-66
2022/03/30 12:31:39;;;;;;;13.80;11.20;;;17.50;91.40;;;;;;5071171;28;20572;-65
2022/03/30 12:34:08;;;;;;;15.07;11.77;;;17.90;91.20;;;;;;5070469;28;20174;-65
2022/03/30 12:36:43;;;;;;;14.20;11.13;;;18.00;90.40;;;;;;5069020;28;20217;-66
2022/03/30 12:39:20;;;;;;;16.57;11.93;;;18.10;90.40;;;;;;5070766;28;20581;-66
2022/03/30 12:42:22;;;;;;;14.57;11.30;;;18.20;90.80;;;;;;5072859;28;20406;-65
2022/03/30 12:44:59;;;;;;;13.33;11.27;;;18.50;91.80;;;;;;5066754;28;20850;-66
2022/03/30 12:47:59;;;;;;;16.23;12.13;;;18.60;91.00;;;;;;5073316;28;20193;-65
2022/03/30 12:50:33;;;;;;;20.33;12.60;;;18.60;90.70;;;;;;5069948;28;20185;-66